createdAt,value
2019-05-21T00:01:56.811Z,15.73
2019-05-21T00:04:28.220Z,16.60
2019-05-21T00:06:55.503Z,15.47
2019-05-21T00:09:23.980Z,16.17
2019-05-21T00:11:52.921Z,15.70
2019-05-21T00:14:21.417Z,16.48
2019-05-21T00:16:49.880Z,16.50
2019-05-21T00:19:18.719Z,15.40
2019-05-21T00:21:47.403Z,15.47
2019-05-21T00:24:15.879Z,13.93
2019-05-21T00:26:44.350Z,15.03
2019-05-21T00:29:48.880Z,14.87
2019-05-21T00:32:53.730Z,14.07
2019-05-21T00:35:58.343Z,14.37
2019-05-21T00:39:03.271Z,14.13
2019-05-21T00:42:09.210Z,13.57
2019-05-21T00:44:40.966Z,13.80
2019-05-21T00:47:11.482Z,14.87
2019-05-21T00:49:40.187Z,13.23
2019-05-21T00:52:09.527Z,14.47
2019-05-21T00:54:38.458Z,12.43
2019-05-21T00:57:07.032Z,13.27
2019-05-21T00:59:35.878Z,14.03
2019-05-21T01:02:05.102Z,14.93
2019-05-21T01:04:33.673Z,14.47
2019-05-21T01:07:02.442Z,12.60
2019-05-21T01:09:31.696Z,13.73
2019-05-21T01:12:00.437Z,14.00
2019-05-21T01:14:28.937Z,13.43
2019-05-21T01:16:57.404Z,13.63
2019-05-21T01:19:25.938Z,13.63
2019-05-21T01:21:54.901Z,14.67
2019-05-21T01:24:23.450Z,14.67
2019-05-21T01:26:51.938Z,15.00
2019-05-21T01:29:20.413Z,14.37
2019-05-21T01:31:48.895Z,14.23
2019-05-21T01:34:17.398Z,13.87
2019-05-21T01:36:49.109Z,13.40
2019-05-21T01:39:20.589Z,14.17
2019-05-21T01:41:50.214Z,13.60
2019-05-21T01:44:18.758Z,14.20
2019-05-21T01:46:47.606Z,12.53
2019-05-21T01:49:16.087Z,12.63
2019-05-21T01:51:44.551Z,12.57
2019-05-21T01:54:13.050Z,12.77
2019-05-21T01:56:41.584Z,11.57
2019-05-21T01:59:10.058Z,13.20
2019-05-21T02:01:38.543Z,12.53
2019-05-21T02:04:07.265Z,12.03
2019-05-21T02:06:36.470Z,12.97
2019-05-21T02:09:07.385Z,13.53
2019-05-21T02:11:36.183Z,13.47
2019-05-21T02:14:05.331Z,12.80
2019-05-21T02:16:33.866Z,13.87
2019-05-21T02:19:02.502Z,15.27
2019-05-21T02:21:31.307Z,13.63
2019-05-21T02:24:00.046Z,14.13
2019-05-21T02:26:32.832Z,14.20
2019-05-21T02:29:01.734Z,14.53
2019-05-21T02:31:30.404Z,13.47
2019-05-21T02:34:03.699Z,12.87
2019-05-21T02:36:35.954Z,12.27
2019-05-21T02:39:08.595Z,12.97
2019-05-21T02:41:40.184Z,13.03
2019-05-21T02:44:10.321Z,12.67
2019-05-21T02:46:40.437Z,12.90
2019-05-21T02:49:15.992Z,12.88
2019-05-21T02:51:45.467Z,14.10
2019-05-21T02:54:15.404Z,11.73
2019-05-21T02:56:50.851Z,13.27
2019-05-21T02:59:21.227Z,13.47
2019-05-21T03:01:52.977Z,12.63
2019-05-21T03:04:24.862Z,12.40
2019-05-21T03:06:56.548Z,13.77
2019-05-21T03:09:29.831Z,12.03
2019-05-21T03:12:02.389Z,14.00
2019-05-21T03:14:34.268Z,13.33
2019-05-21T03:17:07.630Z,13.07
2019-05-21T03:19:36.859Z,13.00
2019-05-21T03:22:05.573Z,13.10
2019-05-21T03:24:34.200Z,14.60
2019-05-21T03:27:02.678Z,13.53
2019-05-21T03:29:31.306Z,13.80
2019-05-21T03:32:00.039Z,13.60
2019-05-21T03:34:28.638Z,13.83
2019-05-21T03:36:57.271Z,14.30
2019-05-21T03:39:25.838Z,13.13
2019-05-21T03:41:54.425Z,14.73
2019-05-21T03:44:22.904Z,14.20
2019-05-21T03:46:51.399Z,14.07
2019-05-21T03:49:19.951Z,12.87
2019-05-21T03:51:48.428Z,13.07
2019-05-21T03:54:16.963Z,13.53
2019-05-21T03:56:45.482Z,13.80
2019-05-21T03:59:13.971Z,13.23
2019-05-21T04:01:42.444Z,11.77
2019-05-21T04:04:10.966Z,11.93
2019-05-21T04:06:51.389Z,12.13
2019-05-21T04:09:09.694Z,12.57
2019-05-21T04:11:38.180Z,13.10
2019-05-21T04:14:06.648Z,12.77
2019-05-21T04:16:36.833Z,14.63
2019-05-21T04:19:09.694Z,13.93
2019-05-21T04:21:38.167Z,14.70
2019-05-21T04:24:09.023Z,16.03
2019-05-21T04:26:36.928Z,15.50
2019-05-21T04:29:05.493Z,14.87
2019-05-21T04:31:34.042Z,14.83
2019-05-21T04:34:02.686Z,15.53
2019-05-21T04:36:31.566Z,14.23
2019-05-21T04:39:00.084Z,14.33
2019-05-21T04:41:28.741Z,12.90
2019-05-21T04:43:57.305Z,13.40
2019-05-21T04:46:25.790Z,13.60
2019-05-21T04:48:54.298Z,12.73
2019-05-21T04:51:22.847Z,13.57
2019-05-21T04:53:51.555Z,11.57
2019-05-21T04:56:20.061Z,12.47
2019-05-21T04:58:48.906Z,13.23
2019-05-21T05:01:17.610Z,12.60
2019-05-21T05:03:46.089Z,10.37
2019-05-21T05:06:14.574Z,11.77
2019-05-21T05:08:43.138Z,11.07
2019-05-21T05:11:11.666Z,12.40
2019-05-21T05:13:40.171Z,11.10
2019-05-21T05:16:08.710Z,11.63
2019-05-21T05:18:37.250Z,12.50
2019-05-21T05:21:05.931Z,11.63
2019-05-21T05:23:34.477Z,10.87
2019-05-21T05:26:03.034Z,9.47
2019-05-21T05:28:31.510Z,11.30
2019-05-21T05:31:00.092Z,10.67
2019-05-21T05:33:28.645Z,12.60
2019-05-21T05:35:57.160Z,11.13
2019-05-21T05:38:25.706Z,12.00
2019-05-21T05:40:54.167Z,13.37
2019-05-21T05:43:22.675Z,13.37
2019-05-21T05:45:51.521Z,11.50
2019-05-21T05:48:20.560Z,11.67
2019-05-21T05:50:53.679Z,10.93
2019-05-21T05:53:22.274Z,11.87
2019-05-21T05:55:51.180Z,12.17
2019-05-21T05:58:19.682Z,12.50
2019-05-21T06:00:48.294Z,12.47
2019-05-21T06:03:16.856Z,11.87
2019-05-21T06:05:45.418Z,13.03
2019-05-21T06:08:13.891Z,11.70
2019-05-21T06:10:42.475Z,12.27
2019-05-21T06:13:11.394Z,11.10
2019-05-21T06:15:39.931Z,11.53
2019-05-21T06:18:09.058Z,10.93
2019-05-21T06:20:38.178Z,10.03
2019-05-21T06:23:06.766Z,11.90
2019-05-21T06:25:35.332Z,10.53
2019-05-21T06:28:04.153Z,11.40
2019-05-21T06:30:32.664Z,10.90
2019-05-21T06:33:01.135Z,11.70
2019-05-21T06:35:29.641Z,11.60
2019-05-21T06:37:58.242Z,10.27
2019-05-21T06:40:29.677Z,10.33
2019-05-21T06:42:58.512Z,10.07
2019-05-21T06:45:27.161Z,10.43
2019-05-21T06:47:55.714Z,9.30
2019-05-21T06:50:24.313Z,10.13
2019-05-21T06:52:52.884Z,9.60
2019-05-21T06:55:21.613Z,10.03
2019-05-21T06:57:50.096Z,9.27
2019-05-21T07:00:18.919Z,9.13
2019-05-21T07:02:47.452Z,9.30
2019-05-21T07:05:16.043Z,9.83
2019-05-21T07:07:44.556Z,9.27
2019-05-21T07:10:14.001Z,10.57
2019-05-21T07:12:42.563Z,10.37
2019-05-21T07:15:11.452Z,10.90
2019-05-21T07:17:40.033Z,10.83
2019-05-21T07:20:09.917Z,9.80
2019-05-21T07:22:38.499Z,8.60
2019-05-21T07:25:08.011Z,9.80
2019-05-21T07:27:37.193Z,10.07
2019-05-21T07:30:07.410Z,10.90
2019-05-21T07:32:35.905Z,9.53
2019-05-21T07:35:05.850Z,10.67
2019-05-21T07:37:53.738Z,11.87
2019-05-21T07:40:22.374Z,12.03
2019-05-21T07:42:50.911Z,11.00
2019-05-21T07:45:19.478Z,10.40
2019-05-21T07:47:47.952Z,10.73
2019-05-21T07:50:17.790Z,12.00
2019-05-21T07:52:46.508Z,11.20
2019-05-21T07:55:15.127Z,11.10
2019-05-21T07:57:43.678Z,11.43
2019-05-21T08:00:13.186Z,11.10
2019-05-21T08:02:41.683Z,12.40
2019-05-21T08:05:10.474Z,11.80
2019-05-21T08:07:38.963Z,11.33
2019-05-21T08:10:09.590Z,11.57
2019-05-21T08:12:39.865Z,11.47
2019-05-21T08:15:10.888Z,11.23
2019-05-21T08:17:39.682Z,11.63
2019-05-21T08:20:10.991Z,11.73
2019-05-21T08:22:39.664Z,11.77
2019-05-21T08:25:08.992Z,10.63
2019-05-21T08:27:37.524Z,9.70
2019-05-21T08:30:10.145Z,11.07
2019-05-21T08:32:38.814Z,11.57
2019-05-21T08:35:08.045Z,11.20
2019-05-21T08:37:36.515Z,10.87
2019-05-21T08:40:09.088Z,11.27
2019-05-21T08:42:37.638Z,9.33
2019-05-21T08:45:10.111Z,9.77
2019-05-21T08:47:38.674Z,9.80
2019-05-21T08:50:08.423Z,10.07
2019-05-21T08:52:37.043Z,10.93
2019-05-21T08:55:09.767Z,10.03
2019-05-21T08:57:38.462Z,9.73
2019-05-21T09:00:14.597Z,10.83
2019-05-21T09:02:43.811Z,9.43
2019-05-21T09:05:13.019Z,10.35
2019-05-21T09:07:41.556Z,9.00
2019-05-21T09:10:10.650Z,10.43
2019-05-21T09:12:39.179Z,10.57
2019-05-21T09:15:08.787Z,10.27
2019-05-21T09:17:45.769Z,9.80
2019-05-21T09:20:19.980Z,10.07
2019-05-21T09:22:48.478Z,10.53
2019-05-21T09:25:17.025Z,9.93
2019-05-21T09:27:51.420Z,10.20
2019-05-21T09:30:20.905Z,11.30
2019-05-21T09:32:49.457Z,12.07
2019-05-21T09:35:18.583Z,13.23
2019-05-21T09:37:47.115Z,13.23
2019-05-21T09:40:16.837Z,13.83
2019-05-21T09:42:45.731Z,11.80
2019-05-21T09:45:15.531Z,12.70
2019-05-21T09:47:44.159Z,12.17
2019-05-21T09:50:12.825Z,10.93
2019-05-21T09:52:41.395Z,10.20
2019-05-21T09:55:11.426Z,9.87
2019-05-21T09:57:41.690Z,9.03
2019-05-21T10:00:16.307Z,9.40
2019-05-21T10:02:45.420Z,9.57
2019-05-21T10:05:14.493Z,9.33
2019-05-21T10:07:48.292Z,9.97
2019-05-21T10:10:17.295Z,7.37
2019-05-21T10:12:45.843Z,8.20
2019-05-21T10:15:14.778Z,7.60
2019-05-21T10:17:43.368Z,4.30
2019-05-21T10:20:12.756Z,7.73
2019-05-21T10:22:41.241Z,8.03
2019-05-21T10:25:10.743Z,7.73
2019-05-21T10:27:39.236Z,7.90
2019-05-21T10:30:08.748Z,7.37
2019-05-21T10:32:37.319Z,7.07
2019-05-21T10:35:06.732Z,7.57
2019-05-21T10:37:35.237Z,8.13
2019-05-21T10:40:08.549Z,7.73
2019-05-21T10:42:37.632Z,7.90
2019-05-21T10:45:07.279Z,8.30
2019-05-21T10:47:35.831Z,8.40
2019-05-21T10:50:07.185Z,8.10
2019-05-21T10:52:36.106Z,8.47
2019-05-21T10:55:06.311Z,8.33
2019-05-21T10:57:34.788Z,8.63
2019-05-21T11:00:06.545Z,8.80
2019-05-21T11:02:36.672Z,8.07
2019-05-21T11:05:08.848Z,8.73
2019-05-21T11:07:37.318Z,8.37
2019-05-21T11:10:07.853Z,8.50
2019-05-21T11:12:56.319Z,7.43
2019-05-21T11:15:24.894Z,8.07
2019-05-21T11:18:08.985Z,7.45
2019-05-21T11:20:23.990Z,8.53
2019-05-21T11:22:52.477Z,7.60
2019-05-21T11:25:20.984Z,7.47
2019-05-21T11:27:49.530Z,8.33
2019-05-21T11:30:19.228Z,8.57
2019-05-21T11:32:48.170Z,8.13
2019-05-21T11:35:18.209Z,7.57
2019-05-21T11:37:48.013Z,7.07
2019-05-21T11:40:18.591Z,7.37
2019-05-21T11:42:47.215Z,7.57
2019-05-21T11:45:31.078Z,7.60
2019-05-21T11:47:46.501Z,6.83
2019-05-21T11:50:17.089Z,7.07
2019-05-21T11:52:46.393Z,6.90
2019-05-21T11:55:15.413Z,6.58
2019-05-21T11:57:44.047Z,5.77
2019-05-21T12:00:14.704Z,6.83
2019-05-21T12:02:43.219Z,5.85
2019-05-21T12:05:12.280Z,5.85
2019-05-21T12:07:40.749Z,6.17
2019-05-21T12:10:10.904Z,6.25
2019-05-21T12:12:39.433Z,5.60
2019-05-21T12:15:09.465Z,6.37
2019-05-21T12:17:37.988Z,5.92
2019-05-21T12:20:08.012Z,5.62
2019-05-21T12:22:36.718Z,5.80
2019-05-21T12:25:06.654Z,6.33
2019-05-21T12:27:35.198Z,6.58
2019-05-21T12:30:08.313Z,6.37
2019-05-21T12:32:37.036Z,6.05
2019-05-21T12:35:06.352Z,7.62
2019-05-21T12:37:35.341Z,7.05
2019-05-21T12:40:07.090Z,6.58
2019-05-21T12:42:36.086Z,6.95
2019-05-21T12:45:06.003Z,7.58
2019-05-21T12:47:34.688Z,6.97
2019-05-21T12:50:04.021Z,7.08
2019-05-21T12:52:33.907Z,7.40
2019-05-21T12:55:04.104Z,6.37
2019-05-21T12:57:32.614Z,6.40
2019-05-21T13:00:01.234Z,7.50
2019-05-21T13:02:29.785Z,7.30
2019-05-21T13:04:58.607Z,6.90
2019-05-21T13:07:27.145Z,6.10
2019-05-21T13:09:56.016Z,6.58
2019-05-21T13:12:24.592Z,6.15
2019-05-21T13:14:53.080Z,6.97
2019-05-21T13:17:21.558Z,6.90
2019-05-21T13:19:50.197Z,6.75
2019-05-21T13:22:18.824Z,5.28
2019-05-21T13:24:47.388Z,5.45
2019-05-21T13:27:15.939Z,6.53
2019-05-21T13:29:44.539Z,5.90
2019-05-21T13:32:13.105Z,6.20
2019-05-21T13:34:41.787Z,6.62
2019-05-21T13:37:10.348Z,6.30
2019-05-21T13:39:49.408Z,5.92
2019-05-21T13:42:09.199Z,7.03
2019-05-21T13:44:37.747Z,6.35
2019-05-21T13:47:06.413Z,6.75
2019-05-21T13:49:34.946Z,6.80
2019-05-21T13:52:03.450Z,7.03
2019-05-21T13:54:31.919Z,6.45
2019-05-21T13:57:00.407Z,7.00
2019-05-21T13:59:29.026Z,6.65
2019-05-21T14:01:57.485Z,7.10
2019-05-21T14:04:26.139Z,6.78
2019-05-21T14:06:55.379Z,6.90
2019-05-21T14:09:24.952Z,7.10
2019-05-21T14:11:54.094Z,6.40
2019-05-21T14:14:22.792Z,5.43
2019-05-21T14:16:51.558Z,5.67
2019-05-21T14:19:20.330Z,5.40
2019-05-21T14:21:49.385Z,5.72
2019-05-21T14:24:17.921Z,6.05
2019-05-21T14:26:46.463Z,6.37
2019-05-21T14:29:15.048Z,7.30
2019-05-21T14:31:43.819Z,6.58
2019-05-21T14:34:12.505Z,6.05
2019-05-21T14:36:41.112Z,6.35
2019-05-21T14:39:13.800Z,6.47
2019-05-21T14:41:42.739Z,7.60
2019-05-21T14:44:11.210Z,6.75
2019-05-21T14:46:39.785Z,7.90
2019-05-21T14:49:08.326Z,7.42
2019-05-21T14:51:36.809Z,7.05
2019-05-21T14:54:05.678Z,8.00
2019-05-21T14:56:34.153Z,7.08
2019-05-21T14:59:02.769Z,7.53
2019-05-21T15:01:31.364Z,7.70
2019-05-21T15:03:59.971Z,7.65
2019-05-21T15:06:28.866Z,8.35
2019-05-21T15:08:57.431Z,8.45
2019-05-21T15:11:25.972Z,8.48
2019-05-21T15:13:54.834Z,8.55
2019-05-21T15:16:23.306Z,8.18
2019-05-21T15:18:51.872Z,7.58
2019-05-21T15:21:22.345Z,8.23
2019-05-21T15:23:51.096Z,7.33
2019-05-21T15:26:20.081Z,7.95
2019-05-21T15:28:48.771Z,8.20
2019-05-21T15:31:17.264Z,7.33
2019-05-21T15:33:45.972Z,8.50
2019-05-21T15:36:14.514Z,7.93
2019-05-21T15:38:50.067Z,8.38
2019-05-21T15:41:13.294Z,8.08
2019-05-21T15:43:41.850Z,8.78
2019-05-21T15:46:10.398Z,8.43
2019-05-21T15:48:38.972Z,7.97
2019-05-21T15:51:07.444Z,7.00
2019-05-21T15:53:37.919Z,8.35
2019-05-21T15:56:09.334Z,8.00
2019-05-21T15:58:41.067Z,8.90
2019-05-21T16:01:12.906Z,7.95
2019-05-21T16:03:41.399Z,7.83
2019-05-21T16:06:09.929Z,8.88
2019-05-21T16:08:38.462Z,8.80
2019-05-21T16:11:07.267Z,8.03
2019-05-21T16:13:36.369Z,8.48
2019-05-21T16:16:04.998Z,8.55
2019-05-21T16:18:33.471Z,8.08
2019-05-21T16:21:01.945Z,7.60
2019-05-21T16:23:30.548Z,7.58
2019-05-21T16:25:59.494Z,8.23
2019-05-21T16:28:27.967Z,7.62
2019-05-21T16:30:56.705Z,7.70
2019-05-21T16:33:27.155Z,8.33
2019-05-21T16:35:55.398Z,8.15
2019-05-21T16:38:23.886Z,8.98
2019-05-21T16:40:52.387Z,9.00
2019-05-21T16:43:21.364Z,9.30
2019-05-21T16:45:49.976Z,8.68
2019-05-21T16:48:18.555Z,7.50
2019-05-21T16:50:47.045Z,8.03
2019-05-21T16:53:15.552Z,7.97
2019-05-21T16:55:44.133Z,8.10
2019-05-21T16:58:12.767Z,8.83
2019-05-21T17:00:41.319Z,8.90
2019-05-21T17:03:09.877Z,9.33
2019-05-21T17:05:38.362Z,10.28
2019-05-21T17:08:06.877Z,10.20
2019-05-21T17:10:35.432Z,9.93
2019-05-21T17:13:04.975Z,10.85
2019-05-21T17:15:33.480Z,8.98
2019-05-21T17:18:02.111Z,8.80
2019-05-21T17:20:34.086Z,8.45
2019-05-21T17:23:01.185Z,8.13
2019-05-21T17:25:29.723Z,7.70
2019-05-21T17:27:58.204Z,7.65
2019-05-21T17:30:26.831Z,7.78
2019-05-21T17:32:55.707Z,8.73
2019-05-21T17:35:24.504Z,7.58
2019-05-21T17:37:53.057Z,7.83
2019-05-21T17:40:21.636Z,7.60
2019-05-21T17:42:50.182Z,7.58
2019-05-21T17:45:18.843Z,7.00
2019-05-21T17:47:47.403Z,7.50
2019-05-21T17:50:17.774Z,7.40
2019-05-21T17:52:46.278Z,7.37
2019-05-21T17:55:15.103Z,7.22
2019-05-21T17:57:43.782Z,7.50
2019-05-21T18:00:13.352Z,7.27
2019-05-21T18:02:42.402Z,8.23
2019-05-21T18:05:12.297Z,7.20
2019-05-21T18:07:42.865Z,7.17
2019-05-21T18:10:14.374Z,7.10
2019-05-21T18:12:44.914Z,7.90
2019-05-21T18:15:14.482Z,7.50
2019-05-21T18:17:44.104Z,7.67
2019-05-21T18:20:15.361Z,6.93
2019-05-21T18:22:45.606Z,6.40
2019-05-21T18:25:15.375Z,7.40
2019-05-21T18:27:44.102Z,6.33
2019-05-21T18:30:13.612Z,5.87
2019-05-21T18:32:46.561Z,5.30
2019-05-21T18:35:15.646Z,5.63
2019-05-21T18:37:44.943Z,6.40
2019-05-21T18:40:14.979Z,5.57
2019-05-21T18:42:43.453Z,6.80
2019-05-21T18:45:12.463Z,6.00
2019-05-21T18:47:41.362Z,6.97
2019-05-21T18:50:11.091Z,7.00
2019-05-21T18:52:39.702Z,7.80
2019-05-21T18:55:08.345Z,7.77
2019-05-21T18:57:36.821Z,7.23
2019-05-21T19:00:08.367Z,7.60
2019-05-21T19:02:36.852Z,7.57
2019-05-21T19:05:09.412Z,7.50
2019-05-21T19:07:38.021Z,7.07
2019-05-21T19:10:09.497Z,7.87
2019-05-21T19:12:39.011Z,7.57
2019-05-21T19:15:09.036Z,7.47
2019-05-21T19:17:37.582Z,7.47
2019-05-21T19:20:08.987Z,8.47
2019-05-21T19:22:37.700Z,8.00
2019-05-21T19:25:14.503Z,8.53
2019-05-21T19:27:44.002Z,8.67
2019-05-21T19:30:20.389Z,8.95
2019-05-21T19:32:52.058Z,9.33
2019-05-21T19:35:21.017Z,9.47
2019-05-21T19:37:50.055Z,9.67
2019-05-21T19:40:20.598Z,8.70
2019-05-21T19:42:55.015Z,8.13
2019-05-21T19:45:20.143Z,8.67
2019-05-21T19:47:48.695Z,9.40
2019-05-21T19:50:19.567Z,8.03
2019-05-21T19:52:48.140Z,8.03
2019-05-21T19:55:16.977Z,8.43
2019-05-21T19:57:48.095Z,9.40
2019-05-21T20:00:19.855Z,9.90
2019-05-21T20:02:53.069Z,9.57
2019-05-21T20:05:22.088Z,8.77
2019-05-21T20:07:52.577Z,10.43
2019-05-21T20:10:21.705Z,10.20
2019-05-21T20:12:50.895Z,10.50
2019-05-21T20:15:19.572Z,10.40
2019-05-21T20:17:51.064Z,11.80
2019-05-21T20:20:30.202Z,10.77
2019-05-21T20:22:57.363Z,10.83
2019-05-21T20:25:26.636Z,12.00
2019-05-21T20:27:56.473Z,10.97
2019-05-21T20:30:27.317Z,11.17
2019-05-21T20:32:57.612Z,11.57
2019-05-21T20:35:27.868Z,12.57
2019-05-21T20:37:56.516Z,12.70
2019-05-21T20:40:25.859Z,12.33
2019-05-21T20:42:54.800Z,12.67
2019-05-21T20:45:30.479Z,12.90
2019-05-21T20:47:59.917Z,12.13
2019-05-21T20:50:28.534Z,12.20
2019-05-21T20:52:57.284Z,12.30
2019-05-21T20:55:31.114Z,13.00
2019-05-21T20:58:00.142Z,13.13
2019-05-21T21:00:30.601Z,12.97
2019-05-21T21:03:00.611Z,13.37
2019-05-21T21:05:29.617Z,11.20
2019-05-21T21:07:59.514Z,12.93
2019-05-21T21:10:28.916Z,13.10
2019-05-21T21:12:59.062Z,13.77
2019-05-21T21:15:27.859Z,12.47
2019-05-21T21:17:56.334Z,13.47
2019-05-21T21:20:25.094Z,13.37
2019-05-21T21:22:54.452Z,13.23
2019-05-21T21:25:26.189Z,14.30
2019-05-21T21:27:55.128Z,14.17
2019-05-21T21:30:24.183Z,14.90
2019-05-21T21:32:53.796Z,13.70
2019-05-21T21:35:23.012Z,13.97
2019-05-21T21:37:51.542Z,13.37
2019-05-21T21:40:22.013Z,13.03
2019-05-21T21:42:51.539Z,12.30
2019-05-21T21:45:20.491Z,11.63
2019-05-21T21:47:49.543Z,11.23
2019-05-21T21:50:18.511Z,9.87
2019-05-21T21:52:47.571Z,8.67
2019-05-21T21:55:16.815Z,8.17
2019-05-21T21:57:45.432Z,7.57
2019-05-21T22:00:52.838Z,7.67
2019-05-21T22:03:22.224Z,7.43
2019-05-21T22:05:51.299Z,8.13
2019-05-21T22:08:23.483Z,7.57
2019-05-21T22:10:52.590Z,8.20
2019-05-21T22:13:21.096Z,7.37
2019-05-21T22:15:50.842Z,7.33
2019-05-21T22:18:19.897Z,6.07
2019-05-21T22:20:49.301Z,7.73
2019-05-21T22:23:18.485Z,6.93
2019-05-21T22:25:47.433Z,6.53
2019-05-21T22:28:17.378Z,7.17
2019-05-21T22:30:46.385Z,7.00
2019-05-21T22:33:16.301Z,7.35
2019-05-21T22:35:44.863Z,8.17
2019-05-21T22:38:13.711Z,7.43
2019-05-21T22:40:42.311Z,7.10
2019-05-21T22:43:10.913Z,7.53
2019-05-21T22:45:41.165Z,7.30
2019-05-21T22:48:09.976Z,7.37
2019-05-21T22:50:38.785Z,7.47
2019-05-21T22:53:08.197Z,7.93
2019-05-21T22:55:36.729Z,8.47
2019-05-21T22:58:05.828Z,7.60
2019-05-21T23:00:34.900Z,8.73
2019-05-21T23:03:03.950Z,8.50
2019-05-21T23:05:32.926Z,8.50
2019-05-21T23:08:02.808Z,8.77
2019-05-21T23:10:32.223Z,10.17
2019-05-21T23:13:01.759Z,11.13
2019-05-21T23:15:30.540Z,11.03
2019-05-21T23:17:59.037Z,10.17
2019-05-21T23:20:29.718Z,9.50
2019-05-21T23:22:59.526Z,12.90
2019-05-21T23:25:30.126Z,13.10
2019-05-21T23:27:59.355Z,13.27
2019-05-21T23:30:28.675Z,12.37
2019-05-21T23:32:58.011Z,12.97
2019-05-21T23:35:27.962Z,13.77
2019-05-21T23:37:57.493Z,12.03
2019-05-21T23:40:26.261Z,11.27
2019-05-21T23:42:55.222Z,9.80
2019-05-21T23:45:24.505Z,10.07
2019-05-21T23:47:53.728Z,9.17
2019-05-21T23:50:24.590Z,9.47
2019-05-21T23:52:54.798Z,8.33
2019-05-21T23:55:23.503Z,8.67
2019-05-21T23:57:52.618Z,8.17
